• Join FlightAware (Why Join?)
  • Login
  • US Flag 
09:38AM EDT


 

Airport Tracker/Info


-or-


 

Live Flight TrackerFlight Track Log ✈ N950KA ✈ 07-Jun-2012 ✈ KFPR - 3JC

Flight Track Log - Related Links

Times and Time Zones

All times are in EDT time to prevent confusion due to time zone crossing. See the N950KA flight status page for this flight to view local times or setup timezone preferences in your user account.

Time Position Orientation Groundspeed Altitude Reporting Facility
EDT Latitude Longitude Course Direction KTS MPH feet Rate Location/Type
12:06PM 27.4975 -80.3922 279° West 236 272 700  Level Miami Center
12:10PM 27.5186 -80.5497 279° West 128 147 6,000 1,320 Climbing Miami Center
12:11PM 27.5256 -80.5989 278° West 139 160 7,400 1,320 Climbing Miami Center
12:12PM 27.5308 -80.6414 293° West 145 167 8,700 1,200 Climbing Miami Center
12:13PM 27.5444 -80.6769 289° West 145 167 9,800 1,080 Climbing Miami Center
12:14PM 27.5558 -80.7147 289° West 145 167 10,900 1,140 Climbing Miami Center
12:15PM 27.5694 -80.7597 289° West 145 167 12,100 1,020 Climbing Miami Center
12:16PM 27.5828 -80.8022 291° West 145 167 13,000 1,080 Climbing Miami Center
12:17PM 27.5964 -80.8425 290° West 145 167 14,300 1,020 Climbing Miami Center
12:18PM 27.6078 -80.8781 292° West 137 158 15,100 840 Climbing Miami Center
12:19PM 27.6214 -80.9161 287° West 132 152 16,000 840 Climbing Miami Center
12:20PM 27.6308 -80.9517 292° West 132 152 16,800 840 Climbing Miami Center
12:21PM 27.6464 -80.9944 288° West 132 152 17,700 720 Climbing Miami Center
12:22PM 27.6578 -81.0347 293° West 132 152 18,300 660 Climbing Miami Center
12:23PM 27.6731 -81.0750 290° West 137 158 19,100 780 Climbing Miami Center
12:24PM 27.6886 -81.1225 291° West 137 158 19,900 660 Climbing Miami Center
12:25PM 27.7019 -81.1628 292° West 142 163 20,500 660 Climbing Miami Center
12:26PM 27.7172 -81.2056 289° West 147 169 21,300 660 Climbing Miami Center
12:27PM 27.7306 -81.2483 293° West 147 169 21,900 600 Climbing Miami Center
12:28PM 27.7461 -81.2889 289° West 147 169 22,500 600 Climbing Miami Center
12:29PM 27.7594 -81.3317 289° West 147 169 23,100 600 Climbing Miami Center
12:30PM 27.7728 -81.3744 293° West 147 169 23,700 540 Climbing Miami Center
12:31PM 27.7881 -81.4147 292° West 147 169 24,200 480 Climbing Miami Center
12:32PM 27.8033 -81.4578 291° West 147 169 24,700 480 Climbing Miami Center
12:33PM 27.8167 -81.4981 87° East 147 169 25,200 600 Climbing Miami Center
12:34PM 27.8169 -81.4911 57° Northeast 68 78 26,000 360 Climbing Miami Center
12:35PM 27.8236 -81.4797 43° Northeast 60 69 26,000  Level Miami Center
12:36PM 27.8711 -81.4300 43° Northeast 255 293 26,000  Level Miami Center
12:37PM 27.9250 -81.3733 43° Northeast 255 293 26,000  Level Miami Center
12:38PM 27.9789 -81.3167 309° West 255 293 26,000  Level Miami Center
01:14PM 29.3098 -83.1999 317° Northwest  Level FlightAware Approximate
01:15PM 29.3579 -83.2511 325° Northwest  Level FlightAware Approximate
01:16PM 29.4116 -83.2942 316° Northwest  Level FlightAware Approximate
01:17PM 29.4587 -83.3466 316° Northwest  Level FlightAware Approximate
01:18PM 29.5058 -83.3991 316° Northwest  Level FlightAware Approximate
01:19PM 29.5529 -83.4516 316° Northwest  Level FlightAware Approximate
01:20PM 29.5999 -83.5042 316° Northwest  Level FlightAware Approximate
01:21PM 29.6469 -83.5568 316° Northwest  Level FlightAware Approximate
01:22PM 29.6939 -83.6095 316° Northwest  Level FlightAware Approximate
01:23PM 29.7409 -83.6622 316° Northwest  Level FlightAware Approximate
01:24PM 29.7878 -83.7149 316° Northwest  Level FlightAware Approximate
01:25PM 29.8347 -83.7678 316° Northwest  Level FlightAware Approximate
01:26PM 29.8817 -83.8206 316° Northwest  Level FlightAware Approximate
01:27PM 29.9285 -83.8736 316° Northwest  Level FlightAware Approximate
01:28PM 29.9754 -83.9265 316° Northwest  Level FlightAware Approximate
01:29PM 30.0222 -83.9795 316° Northwest  Level FlightAware Approximate
01:30PM 30.0691 -84.0326 316° Northwest  Level FlightAware Approximate
01:31PM 30.1159 -84.0857 316° Northwest  Level FlightAware Approximate
01:32PM 30.1626 -84.1389 315° West  Level FlightAware Approximate
01:33PM 30.2094 -84.1921 315° West  Level FlightAware Approximate
01:34PM 30.2561 -84.2454 315° West  Level FlightAware Approximate
01:35PM 30.3029 -84.2987 315° West  Level FlightAware Approximate
01:36PM 30.3496 -84.3521 315° West  Level FlightAware Approximate
01:37PM 30.3962 -84.4055 315° West  Level FlightAware Approximate
01:38PM 30.4429 -84.4589 315° West  Level FlightAware Approximate
01:39PM 30.4890 -84.5131 315° West  Level FlightAware Approximate
01:40PM 30.5351 -84.5673 315° West  Level FlightAware Approximate
01:41PM 30.5811 -84.6215 315° West  Level FlightAware Approximate
01:42PM 30.6271 -84.6758 315° West  Level FlightAware Approximate
01:43PM 30.6732 -84.7301 315° West  Level FlightAware Approximate
01:44PM 30.7192 -84.7845 314° West  Level FlightAware Approximate
01:45PM 30.7651 -84.8390 314° West  Level FlightAware Approximate
01:46PM 30.8111 -84.8934 314° West  Level FlightAware Approximate
01:47PM 30.8570 -84.9480 314° West  Level FlightAware Approximate
01:48PM 30.9029 -85.0026 314° West  Level FlightAware Approximate
01:49PM 30.9487 -85.0573 314° West  Level FlightAware Approximate
01:50PM 30.9946 -85.1120 314° West  Level FlightAware Approximate
01:51PM 31.0404 -85.1667 314° West  Level FlightAware Approximate
01:52PM 31.0862 -85.2215 314° West  Level FlightAware Approximate
01:53PM 31.1320 -85.2764 314° West  Level FlightAware Approximate
01:54PM 31.1778 -85.3313 314° West  Level FlightAware Approximate
01:55PM 31.2235 -85.3863 314° West  Level FlightAware Approximate
01:56PM 31.2692 -85.4413 314° West  Level FlightAware Approximate
01:57PM 31.3149 -85.4964 314° West  Level FlightAware Approximate
01:58PM 31.3605 -85.5515 314° West  Level FlightAware Approximate
01:59PM 31.4062 -85.6067 314° West  Level FlightAware Approximate
02:00PM 31.4518 -85.6619 314° West  Level FlightAware Approximate
02:01PM 31.4974 -85.7172 314° West  Level FlightAware Approximate
02:02PM 31.5430 -85.7726 314° West  Level FlightAware Approximate
02:03PM 31.5885 -85.8280 314° West  Level FlightAware Approximate
02:04PM 31.6340 -85.8834 313° West  Level FlightAware Approximate
02:05PM 31.6791 -85.9395 313° West  Level FlightAware Approximate
02:06PM 31.7241 -85.9956 313° West  Level FlightAware Approximate
02:07PM 31.7690 -86.0517 313° West  Level FlightAware Approximate
02:08PM 31.8140 -86.1079 313° West  Level FlightAware Approximate
02:09PM 31.8589 -86.1642 313° West  Level FlightAware Approximate
02:10PM 31.9038 -86.2205 313° West  Level FlightAware Approximate
02:11PM 31.9486 -86.2769 313° West  Level FlightAware Approximate
02:12PM 31.9935 -86.3333 313° West  Level FlightAware Approximate
02:13PM 32.0383 -86.3898 313° West  Level FlightAware Approximate
02:14PM 32.0831 -86.4463 313° West  Level FlightAware Approximate
02:15PM 32.1279 -86.5029 313° West  Level FlightAware Approximate
02:16PM 32.1726 -86.5596 313° West  Level FlightAware Approximate
02:17PM 32.2173 -86.6163 313° West  Level FlightAware Approximate
02:18PM 32.2620 -86.6730 313° West  Level FlightAware Approximate
02:19PM 32.3067 -86.7298 313° West  Level FlightAware Approximate
02:20PM 32.3513 -86.7867 313° West  Level FlightAware Approximate
02:21PM 32.3959 -86.8437 313° West  Level FlightAware Approximate
02:22PM 32.4405 -86.9006 313° West  Level FlightAware Approximate
02:23PM 32.4851 -86.9577 313° West  Level FlightAware Approximate
02:24PM 32.5296 -87.0148 313° West  Level FlightAware Approximate
02:25PM 32.5741 -87.0719 313° West  Level FlightAware Approximate
02:26PM 32.6186 -87.1291 313° West  Level FlightAware Approximate
02:27PM 32.6631 -87.1864 313° West  Level FlightAware Approximate
02:28PM 32.7075 -87.2437 313° West  Level FlightAware Approximate
02:29PM 32.7519 -87.3011 312° West  Level FlightAware Approximate
02:30PM 32.7961 -87.3588 312° West  Level FlightAware Approximate
02:31PM 32.8402 -87.4165 312° West  Level FlightAware Approximate
02:32PM 32.8843 -87.4743 312° West  Level FlightAware Approximate
02:33PM 32.9284 -87.5322 312° West  Level FlightAware Approximate
02:34PM 32.9725 -87.5901 312° West  Level FlightAware Approximate
02:35PM 33.0165 -87.6481 312° West  Level FlightAware Approximate
02:36PM 33.0605 -87.7061 312° West  Level FlightAware Approximate
02:37PM 33.1045 -87.7642 312° West  Level FlightAware Approximate
02:38PM 33.1484 -87.8224 312° West  Level FlightAware Approximate
02:39PM 33.1923 -87.8806 312° West  Level FlightAware Approximate
02:40PM 33.2362 -87.9388 312° West  Level FlightAware Approximate
02:41PM 33.2801 -87.9971 312° West  Level FlightAware Approximate
02:42PM 33.3239 -88.0555 312° West  Level FlightAware Approximate
02:43PM 33.3677 -88.1140 312° West  Level FlightAware Approximate
02:44PM 33.4114 -88.1725 312° West  Level FlightAware Approximate
02:45PM 33.4551 -88.2312 312° West  Level FlightAware Approximate
02:46PM 33.4987 -88.2899 311° West  Level FlightAware Approximate
02:47PM 33.5421 -88.3489 311° West  Level FlightAware Approximate
02:48PM 33.5855 -88.4079 311° West  Level FlightAware Approximate
02:49PM 33.6289 -88.4670 311° West  Level FlightAware Approximate
02:50PM 33.6722 -88.5262 311° West  Level FlightAware Approximate
02:51PM 33.7155 -88.5854 311° West  Level FlightAware Approximate
02:52PM 33.7588 -88.6447 311° West  Level FlightAware Approximate
02:53PM 33.8020 -88.7040 311° West  Level FlightAware Approximate
02:54PM 33.8453 -88.7634 311° West  Level FlightAware Approximate
02:55PM 33.8885 -88.8228 311° West  Level FlightAware Approximate
02:56PM 33.9316 -88.8823 311° West  Level FlightAware Approximate
02:57PM 33.9747 -88.9419 311° West  Level FlightAware Approximate
02:58PM 34.0178 -89.0015 311° West  Level FlightAware Approximate
02:59PM 34.0609 -89.0612 311° West  Level FlightAware Approximate
03:00PM 34.1040 -89.1210 311° West  Level FlightAware Approximate
03:01PM 34.1470 -89.1808 311° West  Level FlightAware Approximate
03:02PM 34.1900 -89.2407 311° West  Level FlightAware Approximate
03:03PM 34.2329 -89.3006 311° West  Level FlightAware Approximate
03:04PM 34.2759 -89.3606 311° West  Level FlightAware Approximate
03:05PM 34.3188 -89.4207 311° West  Level FlightAware Approximate
03:06PM 34.3616 -89.4808 311° West  Level FlightAware Approximate
03:07PM 34.4045 -89.5410 311° West  Level FlightAware Approximate
03:08PM 34.4473 -89.6012 311° West  Level FlightAware Approximate
03:09PM 34.4901 -89.6616 311° West  Level FlightAware Approximate
03:10PM 34.5328 -89.7219 311° West  Level FlightAware Approximate
03:11PM 34.5755 -89.7824 311° West  Level FlightAware Approximate
03:12PM 34.6182 -89.8428 311° West  Level FlightAware Approximate
03:13PM 34.6609 -89.9034 311° West  Level FlightAware Approximate
03:14PM 34.7035 -89.9640 333° Northwest  Level FlightAware Approximate
03:15PM 34.7604 -89.9989 310° West  Level FlightAware Approximate
03:16PM 34.8025 -90.0601 310° West  Level FlightAware Approximate
03:17PM 34.8446 -90.1214 307° West  Level FlightAware Approximate
03:18PM 34.8844 -90.1849 310° West  Level FlightAware Approximate
03:19PM 34.9266 -90.2462 310° West  Level FlightAware Approximate
03:20PM 34.9687 -90.3075 310° West  Level FlightAware Approximate
03:21PM 35.0108 -90.3689 310° West  Level FlightAware Approximate
03:22PM 35.0529 -90.4304 310° West  Level FlightAware Approximate
03:23PM 35.0949 -90.4919 310° West  Level FlightAware Approximate
03:24PM 35.1369 -90.5535 310° West  Level FlightAware Approximate
03:25PM 35.1789 -90.6151 310° West  Level FlightAware Approximate
03:26PM 35.2209 -90.6768 310° West  Level FlightAware Approximate
03:27PM 35.2628 -90.7386 310° West  Level FlightAware Approximate
03:28PM 35.3046 -90.8005 313° West  Level FlightAware Approximate
03:29PM 35.3490 -90.8597 310° West  Level FlightAware Approximate
03:30PM 35.3911 -90.9213 309° West  Level FlightAware Approximate
03:31PM 35.4327 -90.9835 309° West  Level FlightAware Approximate
03:32PM 35.4743 -91.0458 309° West  Level FlightAware Approximate
03:33PM 35.5159 -91.1081 306° West  Level FlightAware Approximate
03:34PM 35.5539 -91.1723 309° West  Level FlightAware Approximate
03:35PM 35.5955 -91.2346 309° West  Level FlightAware Approximate
03:36PM 35.6371 -91.2970 309° West  Level FlightAware Approximate
03:37PM 35.6786 -91.3595 309° West  Level FlightAware Approximate
03:38PM 35.7201 -91.4220 309° West  Level FlightAware Approximate
03:39PM 35.7616 -91.4846 309° West  Level FlightAware Approximate
03:40PM 35.8030 -91.5473 309° West  Level FlightAware Approximate
03:41PM 35.8445 -91.6100 309° West  Level FlightAware Approximate
03:42PM 35.8858 -91.6728 309° West  Level FlightAware Approximate
03:43PM 35.9272 -91.7356 309° West  Level FlightAware Approximate
03:44PM 35.9685 -91.7986 309° West  Level FlightAware Approximate
03:45PM 36.0098 -91.8616 309° West  Level FlightAware Approximate
03:46PM 36.0510 -91.9246 309° West  Level FlightAware Approximate
03:47PM 36.0923 -91.9878 309° West  Level FlightAware Approximate
03:48PM 36.1334 -92.0510 309° West  Level FlightAware Approximate
03:49PM 36.1746 -92.1142 309° West  Level FlightAware Approximate
03:50PM 36.2157 -92.1776 309° West  Level FlightAware Approximate
03:51PM 36.2568 -92.2409 309° West  Level FlightAware Approximate
03:52PM 36.2978 -92.3044 309° West  Level FlightAware Approximate
03:53PM 36.3389 -92.3679 309° West  Level FlightAware Approximate
03:54PM 36.3798 -92.4315 309° West  Level FlightAware Approximate
03:55PM 36.4208 -92.4952 309° West  Level FlightAware Approximate
03:56PM 36.4617 -92.5589 309° West  Level FlightAware Approximate
03:57PM 36.5026 -92.6227 309° West  Level FlightAware Approximate
03:58PM 36.5434 -92.6865 308° West  Level FlightAware Approximate
03:59PM 36.5843 -92.7505 309° West  Level FlightAware Approximate
04:00PM 36.6254 -92.8141 308° West  Level FlightAware Approximate
04:01PM 36.6661 -92.8783 308° West  Level FlightAware Approximate
04:02PM 36.7067 -92.9425 308° West  Level FlightAware Approximate
04:03PM 36.7473 -93.0067 306° West  Level FlightAware Approximate
04:04PM 36.7857 -93.0725 308° West  Level FlightAware Approximate
04:05PM 36.8262 -93.1369 308° West  Level FlightAware Approximate
04:06PM 36.8667 -93.2014 308° West  Level FlightAware Approximate
04:07PM 36.9071 -93.2659 308° West  Level FlightAware Approximate
04:08PM 36.9475 -93.3306 310° West  Level FlightAware Approximate
04:09PM 36.9898 -93.3934 308° West  Level FlightAware Approximate
04:10PM 37.0302 -93.4581 308° West  Level FlightAware Approximate
04:11PM 37.0706 -93.5228 308° West  Level FlightAware Approximate
04:12PM 37.1109 -93.5877 308° West  Level FlightAware Approximate
04:13PM 37.1512 -93.6526 308° West  Level FlightAware Approximate
04:14PM 37.1915 -93.7176 311° West  Level FlightAware Approximate
04:15PM 37.2343 -93.7797 308° West  Level FlightAware Approximate
04:16PM 37.2744 -93.8450 308° West  Level FlightAware Approximate
04:17PM 37.3144 -93.9103 308° West  Level FlightAware Approximate
04:18PM 37.3544 -93.9757 308° West  Level FlightAware Approximate
04:19PM 37.3943 -94.0412 308° West  Level FlightAware Approximate
04:20PM 37.4342 -94.1067 304° West  Level FlightAware Approximate
04:21PM 37.4695 -94.1731 308° West  Level FlightAware Approximate
04:22PM 37.5095 -94.2387 307° West  Level FlightAware Approximate
04:23PM 37.5493 -94.3044 307° West  Level FlightAware Approximate
04:24PM 37.5892 -94.3701 307° West  Level FlightAware Approximate
04:25PM 37.6290 -94.4360 307° West  Level FlightAware Approximate
04:26PM 37.6688 -94.5018 307° West  Level FlightAware Approximate
04:27PM 37.7085 -94.5678 307° West  Level FlightAware Approximate
04:28PM 37.7482 -94.6338 318° Northwest  Level FlightAware Approximate
04:29PM 37.7964 -94.6889 307° West  Level FlightAware Approximate
04:30PM 37.8358 -94.7553 307° West  Level FlightAware Approximate
04:31PM 37.8750 -94.8218 307° West  Level FlightAware Approximate
04:32PM 37.9143 -94.8884 307° West  Level FlightAware Approximate
04:33PM 37.9535 -94.9551 307° West  Level FlightAware Approximate
04:34PM 37.9927 -95.0218 307° West  Level FlightAware Approximate
04:35PM 38.0318 -95.0887 306° West  Level FlightAware Approximate
04:36PM 38.0699 -95.1564 302° West  Level FlightAware Approximate
04:37PM 38.1051 -95.2268 303° West  Level FlightAware Approximate
04:38PM 38.1412 -95.2963 307° West  Level FlightAware Approximate
04:39PM 38.1805 -95.3631 307° West  Level FlightAware Approximate
04:40PM 38.2198 -95.4300 307° West  Level FlightAware Approximate
04:41PM 38.2590 -95.4969 309° West  Level FlightAware Approximate
04:42PM 38.3004 -95.5617 307° West  Level FlightAware Approximate
04:43PM 38.3395 -95.6289 307° West  Level FlightAware Approximate
04:44PM 38.3785 -95.6961 306° West  Level FlightAware Approximate
04:45PM 38.4174 -95.7634 309° West  Level FlightAware Approximate
04:46PM 38.4587 -95.8282 306° West  Level FlightAware Approximate
04:47PM 38.4974 -95.8958 306° West  Level FlightAware Approximate
04:48PM 38.5361 -95.9635 306° West  Level FlightAware Approximate
04:49PM 38.5747 -96.0313 310° West  Level FlightAware Approximate
04:50PM 38.6167 -96.0945 305° West  Level FlightAware Approximate
04:51PM 38.6543 -96.1629 308° West  Level FlightAware Approximate
04:52PM 38.6936 -96.2269 305° West  Level FlightAware Approximate
04:53PM 38.7310 -96.2952 305° West  Level FlightAware Approximate
04:54PM 38.7689 -96.3639 305° West  Level FlightAware Approximate
04:55PM 38.8068 -96.4326 304° West  Level FlightAware Approximate
04:56PM 38.8425 -96.5011 311° West  Level FlightAware Approximate
04:57PM 38.8855 -96.5647 311° West  Level FlightAware Approximate